Weather at New Stuyahok Airport

Public forecast

Using degrees Fahrenheit for public forecast. Weather courtesy of forecast.io.

Current aviation weather report (METAR) for New Stuyahok Airport

Retrieved 2021/06/13 10:56 UTC (55 minutes ago):

PANW 131056Z AUTO 23006KT 10SM CLR 05/05 A2993 RMK AO2 SLP140 T00500050

Closest aviation forecast (TAF) to New Stuyahok Airport

Closest forecast is Dillingham Airport, 43.6 nm (80.7 km) WSW. Retrieved 2021/06/13 06:36 UTC (5 hours ago):

TAF PADL 130534Z 1306/1406 VRB06KT P6SM SCT025 OVC035 TEMPO 1306/1310 OVC025 FM131000 VRB05KT P6SM OVC015 FM131700 VRB05KT P6SM OVC025 FM132100 15008KT P6SM OVC050